Map

Track Data

SID SEASON NUMBER BASIN SUBBASIN NAME ISO_TIME NATURE LAT LON WMO_WIND WMO_PRES WMO_AGENCY TRACK_TYPE DIST2LAND LANDFALL IFLAG USA_AGENCY USA_ATCF_ID USA_LAT USA_LON USA_RECORD USA_STATUS USA_WIND USA_PRES USA_SSHS USA_R34_NE USA_R34_SE USA_R34_SW USA_R34_NW USA_R50_NE USA_R50_SE USA_R50_SW USA_R50_NW USA_R64_NE USA_R64_SE USA_R64_SW USA_R64_NW USA_POCI USA_ROCI USA_RMW USA_EYE TOKYO_LAT TOKYO_LON TOKYO_GRADE TOKYO_WIND TOKYO_PRES TOKYO_R50_DIR TOKYO_R50_LONG TOKYO_R50_SHORT TOKYO_R30_DIR TOKYO_R30_LONG TOKYO_R30_SHORT TOKYO_LAND CMA_LAT CMA_LON CMA_CAT CMA_WIND CMA_PRES HKO_LAT HKO_LON HKO_CAT HKO_WIND HKO_PRES NEWDELHI_LAT NEWDELHI_LON NEWDELHI_GRADE NEWDELHI_WIND NEWDELHI_PRES NEWDELHI_CI NEWDELHI_DP NEWDELHI_POCI REUNION_LAT REUNION_LON REUNION_TYPE REUNION_WIND REUNION_PRES REUNION_TNUM REUNION_CI REUNION_RMW REUNION_R34_NE REUNION_R34_SE REUNION_R34_SW REUNION_R34_NW REUNION_R50_NE REUNION_R50_SE REUNION_R50_SW REUNION_R50_NW REUNION_R64_NE REUNION_R64_SE REUNION_R64_SW REUNION_R64_NW BOM_LAT BOM_LON BOM_TYPE BOM_WIND BOM_PRES BOM_TNUM BOM_CI BOM_RMW BOM_R34_NE BOM_R34_SE BOM_R34_SW BOM_R34_NW BOM_R50_NE BOM_R50_SE BOM_R50_SW BOM_R50_NW BOM_R64_NE BOM_R64_SE BOM_R64_SW BOM_R64_NW BOM_ROCI BOM_POCI BOM_EYE BOM_POS_METHOD BOM_PRES_METHOD NADI_LAT NADI_LON NADI_CAT NADI_WIND NADI_PRES WELLINGTON_LAT WELLINGTON_LON WELLINGTON_WIND WELLINGTON_PRES DS824_LAT DS824_LON DS824_STAGE DS824_WIND DS824_PRES TD9636_LAT TD9636_LON TD9636_STAGE TD9636_WIND TD9636_PRES TD9635_LAT TD9635_LON TD9635_WIND TD9635_PRES TD9635_ROCI NEUMANN_LAT NEUMANN_LON NEUMANN_CLASS NEUMANN_WIND NEUMANN_PRES MLC_LAT MLC_LON MLC_CLASS MLC_WIND MLC_PRES USA_GUST BOM_GUST BOM_GUST_PER REUNION_GUST REUNION_GUST_PER USA_SEAHGT USA_SEARAD_NE USA_SEARAD_SE USA_SEARAD_SW USA_SEARAD_NW STORM_SPEED STORM_DIR
1899180N15115 1899 15 WP MM NOT_NAMED 1899-06-29 04:00:00 NR 15.4000 115.000 main 507 507 __________O___ -1 15.4000 115.000 7 10 306
1899180N15115 1899 15 WP MM NOT_NAMED 1899-06-29 06:00:00 NR 15.5845 114.733 main 537 517 __________P___ -1 15.5845 114.733 7 9 306
1899180N15115 1899 15 WP MM NOT_NAMED 1899-06-29 09:00:00 NR 15.8543 114.345 main 517 478 __________P___ -1 15.8543 114.345 7 9 306
1899180N15115 1899 15 WP MM NOT_NAMED 1899-06-29 12:00:00 NR 16.1069 113.989 main 478 439 __________P___ -1 16.1069 113.989 7 8 307
1899180N15115 1899 15 WP MM NOT_NAMED 1899-06-29 15:00:00 NR 16.3325 113.686 main 439 424 __________P___ -1 16.3325 113.686 7 7 308
1899180N15115 1899 15 WP MM NOT_NAMED 1899-06-29 16:00:00 NR 16.4000 113.600 main 424 409 __________O___ -1 16.4000 113.600 3 6 311
1899180N15115 1899 15 WP MM NOT_NAMED 1899-06-29 18:00:00 NR 16.5230 113.454 main 409 378 __________P___ -1 16.5230 113.454 3 5 314
1899180N15115 1899 15 WP MM NOT_NAMED 1899-06-29 21:00:00 NR 16.6887 113.286 main 378 356 __________P___ -1 16.6887 113.286 3 4 319
1899180N15115 1899 15 WP MM NOT_NAMED 1899-06-30 00:00:00 NR 16.8510 113.156 main 356 332 __________P___ -1 16.8510 113.156 3 4 326
1899180N15115 1899 15 WP MM NOT_NAMED 1899-06-30 03:00:00 NR 17.0319 113.040 main 332 325 __________P___ -1 17.0319 113.040 3 4 329
1899180N15115 1899 15 WP MM NOT_NAMED 1899-06-30 04:00:00 NR 17.1000 113.000 main 325 304 __________O___ -1 17.1000 113.000 4 5 333
1899180N15115 1899 15 WP MM NOT_NAMED 1899-06-30 06:00:00 NR 17.2604 112.913 main 304 283 __________P___ -1 17.2604 112.913 4 6 334
1899180N15115 1899 15 WP MM NOT_NAMED 1899-06-30 09:00:00 NR 17.5262 112.783 main 283 248 __________P___ -1 17.5262 112.783 4 6 335
1899180N15115 1899 15 WP MM NOT_NAMED 1899-06-30 12:00:00 NR 17.8114 112.639 main 248 224 __________P___ -1 17.8114 112.639 4 7 332
1899180N15115 1899 15 WP MM NOT_NAMED 1899-06-30 15:00:00 NR 18.1033 112.467 main 224 209 __________P___ -1 18.1033 112.467 4 7 330
1899180N15115 1899 15 WP MM NOT_NAMED 1899-06-30 16:00:00 NR 18.2000 112.400 main 209 181 __________O___ -1 18.2000 112.400 4 7 323
1899180N15115 1899 15 WP MM NOT_NAMED 1899-06-30 18:00:00 NR 18.3939 112.240 main 181 145 __________P___ -1 18.3939 112.240 4 8 320
1899180N15115 1899 15 WP MM NOT_NAMED 1899-06-30 21:00:00 NR 18.6850 111.969 main 145 99 __________P___ -1 18.6850 111.969 4 8 317
1899180N15115 1899 15 WP MM NOT_NAMED 1899-07-01 00:00:00 NR 18.9651 111.678 main 99 61 __________P___ -1 18.9651 111.678 4 8 314
1899180N15115 1899 15 WP MM NOT_NAMED 1899-07-01 03:00:00 NR 19.2218 111.391 main 61 45 __________P___ -1 19.2218 111.391 4 7 313
1899180N15115 1899 15 WP MM NOT_NAMED 1899-07-01 04:00:00 NR 19.3000 111.300 main 45 23 __________O___ -1 19.3000 111.300 4 7 313
1899180N15115 1899 15 WP MM NOT_NAMED 1899-07-01 06:00:00 NR 19.4420 111.138 main 23 0 __________P___ -1 19.4420 111.138 4 6 312
1899180N15115 1899 15 WP MM NOT_NAMED 1899-07-01 09:00:00 NR 19.6299 110.909 main 0 0 __________P___ -1 19.6299 110.909 4 6 310
1899180N15115 1899 15 WP MM NOT_NAMED 1899-07-01 12:00:00 NR 19.7961 110.689 main 0 0 __________P___ -1 19.7961 110.689 4 5 308
1899180N15115 1899 15 WP MM NOT_NAMED 1899-07-01 15:00:00 NR 19.9499 110.472 main 0 0 __________P___ -1 19.9499 110.472 4 5 307
1899180N15115 1899 15 WP MM NOT_NAMED 1899-07-01 16:00:00 NR 20.0000 110.400 main 0 0 __________O___ -1 20.0000 110.400 4 5 307
1899180N15115 1899 15 WP MM NOT_NAMED 1899-07-01 18:00:00 NR 20.1083 110.250 main 11 0 __________P___ -1 20.1083 110.250 4 5 307
1899180N15115 1899 15 WP MM NOT_NAMED 1899-07-01 21:00:00 NR 20.2645 110.025 main 0 0 __________P___ -1 20.2645 110.025 4 5 306
1899180N15115 1899 15 WP MM NOT_NAMED 1899-07-02 00:00:00 NR 20.4132 109.800 main 11 10 __________P___ -1 20.4132 109.800 4 5 304
1899180N15115 1899 15 WP MM NOT_NAMED 1899-07-02 03:00:00 NR 20.5545 109.575 main 20 20 __________P___ -1 20.5545 109.575 4 5 304
1899180N15115 1899 15 WP MM NOT_NAMED 1899-07-02 04:00:00 NR 20.6000 109.500 main 30 30 __________O___ -1 20.6000 109.500 4 5 303
1899180N15115 1899 15 WP MM NOT_NAMED 1899-07-02 06:00:00 NR 20.6916 109.353 main 33 41 __________P___ -1 20.6916 109.353 4 5 303
1899180N15115 1899 15 WP MM NOT_NAMED 1899-07-02 09:00:00 NR 20.8227 109.131 main 62 56 __________P___ -1 20.8227 109.131 4 5 302
1899180N15115 1899 15 WP MM NOT_NAMED 1899-07-02 12:00:00 NR 20.9465 108.908 main 63 54 __________P___ -1 20.9465 108.908 4 5 300
1899180N15115 1899 15 WP MM NOT_NAMED 1899-07-02 15:00:00 NR 21.0629 108.678 main 55 55 __________P___ -1 21.0629 108.678 4 5 298
1899180N15115 1899 15 WP MM NOT_NAMED 1899-07-02 16:00:00 NR 21.1000 108.600 main 56 39 __________O___ -1 21.1000 108.600 4 5 296
1899180N15115 1899 15 WP MM NOT_NAMED 1899-07-02 18:00:00 NR 21.1719 108.440 main 39 22 __________P___ -1 21.1719 108.440 4 5 295
1899180N15115 1899 15 WP MM NOT_NAMED 1899-07-02 21:00:00 NR 21.2747 108.194 main 22 0 __________P___ -1 21.2747 108.194 4 5 293
1899180N15115 1899 15 WP MM NOT_NAMED 1899-07-03 00:00:00 NR 21.3729 107.942 main 0 0 __________P___ -1 21.3730 107.942 4 5 292
1899180N15115 1899 15 WP MM NOT_NAMED 1899-07-03 03:00:00 NR 21.4685 107.686 main 0 0 __________P___ -1 21.4685 107.686 4 5 292
1899180N15115 1899 15 WP MM NOT_NAMED 1899-07-03 04:00:00 NR 21.5000 107.600 main 0 __________O___ -1 21.5000 107.600 7 5 291

Digital Typhoon Data and Search

About IBTrACS Database

This database is a web-friendly format of International Best Track Archive for Climate Stewardship (IBTrACS), a global best track data archive curated by NOAA dating back to 1842.

Updated: 2021-10-08